Espyville, Pennsylvania
Current Conditions -  °F | °C
As of 6:53 PM on Sunday 21 Dec 2014 (Local Time) from KGKJ Reporting Station
Overcast Overcast  
Wind Chill: 29°   Ceiling: 2200
Heat Index: 29°   Visibility: 9mi
Dew Point: 20°   Wind: 3mph
Humidity: 69%   Direction: NA
Pressure: 30.23"   Gusts: NA
Location:  41.6811°N, 80.4288°W
Report Text: KGKJ 212353Z AUTO VRB03KT 9SM OVC022 M02/M07 A3023 RMK AO2 SLP254 T10171067 11011 21017 51004 TSNO $
Loading
Personal Weather Stations






























Interactive Weather Map New forecast layout! Learn more

10-Day Weather Forecast

Advertisements
Track Severe Weather on mobile